Řízení letového provozu České republiky
OPMET data - Ceska Republika Aktualizace: 20.07.2018 15:38:07  UTC
SIGMET / AIRMET - NIL
Warning / Vystraha - NIL
 
METAR / SPECI
METAR LKCV 201500Z 31007KT 260V360 CAVOK 28/09 Q1013 NOSIG RMK BLU BLU=
METAR LKKB 201500Z 28008KT 260V320 CAVOK 28/07 Q1013 NOSIG RMK BLU BLU=
METAR LKKU 201400Z 02003KT 300V050 CAVOK 28/13 Q1012 RMK REG QNH 1010=
METAR LKKV 201530Z 13006KT 080V180 CAVOK 25/08 Q1014 RMK REG QNH 1010=
METAR LKLN 201500Z AUTO 12005KT 060V160 9999 BKN220 27/08 Q1013=
METAR LKMT 201530Z 35006KT 320V030 CAVOK 26/13 Q1013 NOSIG RMK REG QNH 1010=
METAR LKNA 201500Z 28007KT 240V320 CAVOK 28/09 Q1013 NOSIG RMK BLU BLU=
METAR LKPD 201500Z VRB05KT CAVOK 28/07 Q1013 NOSIG RMK BLU BLU=
METAR LKPR 201530Z VRB04KT CAVOK 28/08 Q1013 NOSIG RMK REG QNH 1010=
METAR LKTB 201530Z VRB05KT CAVOK 29/12 Q1012 NOSIG RMK REG QNH 1010=
METAR LKVO 201400Z 35006KT 270V080 CAVOK 28/06 Q1014=
TAF
TAF LKCV 201100Z 2012/2112 07004KT CAVOK      TEMPO 2017/2110 VRB02KT=
TAF LKKB 201100Z 2012/2112 35006KT CAVOK      TEMPO 2012/2018 02010KT      BECMG 2018/2020 09009KT      TEMPO 2109/2112 16012G24KT 8000 SHRA SCT045TCU=
TAF LKKU NIL
TAF LKKV 201100Z 2012/2118 VRB02KT CAVOK      TEMPO 2012/2016 9999 SCT047      TEMPO 2108/2116 7000 SHRA SCT045TCU BKN047      PROB30 TEMPO 2111/2114 4000 TSRA SCT040CB BKN045=
TAF LKLN NIL
TAF LKMT 201100Z 2012/2118 02008KT 9999 SCT033      TEMPO 2012/2013 BKN030      BECMG 2016/2018 CAVOK      BECMG 2023/2102 VRB02KT      TEMPO 2102/2106 3000 BR SCT007      BECMG 2107/2109 02008KT=
TAF LKNA 201100Z 2012/2112 01006KT CAVOK      BECMG 2014/2016 12006KT=
TAF LKPD 201100Z 2012/2112 VRB02KT CAVOK=
TAF LKPR 201100Z 2012/2118 05008KT CAVOK      BECMG 2020/2021 09007KT      BECMG 2109/2111 9999 SCT045      TEMPO 2111/2115 12012G24KT 7000 SHRA SCT040CB BKN045=
TAF LKTB 201100Z 2012/2118 30008KT CAVOK      BECMG 2012/2014 08007KT      TEMPO 2012/2118 9999 SCT045      PROB30 TEMPO 2116/2118 7000 SHRA SCT045TCU BKN047=
TAF LKVO NIL